createdAt,value
2018-03-08T00:00:20.813Z,75.90
2018-03-08T00:02:25.116Z,76.50
2018-03-08T00:04:28.677Z,76.30
2018-03-08T00:06:32.220Z,75.90
2018-03-08T00:08:36.596Z,76.20
2018-03-08T00:10:40.212Z,76.20
2018-03-08T00:12:43.785Z,76.30
2018-03-08T00:14:47.281Z,75.90
2018-03-08T00:16:50.840Z,76.80
2018-03-08T00:18:54.367Z,76.40
2018-03-08T00:20:57.933Z,76.50
2018-03-08T00:23:01.473Z,77.00
2018-03-08T00:25:06.044Z,77.40
2018-03-08T00:27:09.594Z,77.40
2018-03-08T00:29:13.195Z,76.90
2018-03-08T00:31:16.706Z,76.80
2018-03-08T00:33:21.015Z,76.90
2018-03-08T00:35:24.617Z,76.90
2018-03-08T00:37:28.903Z,77.40
2018-03-08T00:39:32.448Z,77.30
2018-03-08T00:41:35.982Z,77.80
2018-03-08T00:43:39.522Z,78.00
2018-03-08T00:45:43.831Z,77.70
2018-03-08T00:47:48.142Z,77.50
2018-03-08T00:49:52.436Z,77.80
2018-03-08T00:51:56.012Z,77.70
2018-03-08T00:53:59.556Z,78.10
2018-03-08T00:56:03.141Z,77.20
2018-03-08T00:58:07.485Z,77.50
2018-03-08T01:00:11.020Z,77.50
2018-03-08T01:02:15.349Z,77.80
2018-03-08T01:04:19.681Z,77.50
2018-03-08T01:06:24.023Z,78.10
2018-03-08T01:08:27.618Z,78.10
2018-03-08T01:10:31.951Z,78.90
2018-03-08T01:12:35.500Z,78.80
2018-03-08T01:14:39.848Z,78.90
2018-03-08T01:16:43.683Z,78.90
2018-03-08T01:18:47.322Z,78.40
2018-03-08T01:20:51.616Z,79.10
2018-03-08T01:22:55.191Z,79.10
2018-03-08T01:24:58.708Z,78.90
2018-03-08T01:27:02.221Z,79.20
2018-03-08T01:29:06.538Z,79.70
2018-03-08T01:31:10.881Z,79.90
2018-03-08T01:33:14.453Z,79.90
2018-03-08T01:35:18.074Z,80.10
2018-03-08T01:37:21.607Z,79.70
2018-03-08T01:39:25.269Z,80.00
2018-03-08T01:41:29.559Z,79.90
2018-03-08T01:43:33.096Z,79.90
2018-03-08T01:45:36.670Z,79.10
2018-03-08T01:47:40.244Z,79.60
2018-03-08T01:49:44.527Z,80.60
2018-03-08T01:51:59.947Z,80.60
2018-03-08T01:54:03.514Z,81.90
2018-03-08T01:56:07.819Z,81.90
2018-03-08T01:58:12.170Z,82.80
2018-03-08T02:00:15.670Z,82.80
2018-03-08T02:02:19.490Z,83.70
2018-03-08T02:04:23.012Z,84.10
2018-03-08T02:06:26.530Z,85.50
2018-03-08T02:08:30.171Z,86.60
2018-03-08T02:10:33.657Z,88.10
2018-03-08T02:12:37.223Z,88.50
2018-03-08T02:14:40.809Z,87.60
2018-03-08T02:16:45.107Z,88.70
2018-03-08T02:18:49.493Z,89.10
2018-03-08T02:20:54.319Z,86.70
2018-03-08T02:22:57.813Z,86.70
2018-03-08T02:25:01.420Z,85.90
2018-03-08T02:27:04.920Z,88.80
2018-03-08T02:29:08.451Z,89.10
2018-03-08T02:31:12.794Z,91.00
2018-03-08T02:33:16.297Z,91.00
2018-03-08T02:35:19.788Z,90.80
2018-03-08T02:37:23.392Z,90.40
2018-03-08T02:39:26.918Z,90.90
2018-03-08T02:41:30.459Z,90.30
2018-03-08T02:43:34.034Z,91.00
2018-03-08T02:45:46.161Z,91.10
2018-03-08T02:47:49.743Z,90.80
2018-03-08T02:49:53.288Z,90.80
2018-03-08T02:51:56.798Z,90.90
2018-03-08T02:54:00.381Z,90.60
2018-03-08T02:56:04.000Z,90.40
2018-03-08T02:58:08.351Z,90.90
2018-03-08T03:00:11.916Z,90.90
2018-03-08T03:02:16.218Z,90.30
2018-03-08T03:04:20.601Z,90.20
2018-03-08T03:06:24.162Z,90.20
2018-03-08T03:08:27.703Z,89.80
2018-03-08T03:10:31.390Z,90.20
2018-03-08T03:12:34.904Z,90.20
2018-03-08T03:14:38.418Z,90.80
2018-03-08T03:16:42.807Z,91.40
2018-03-08T03:18:46.339Z,91.40
2018-03-08T03:20:50.637Z,91.70
2018-03-08T03:22:54.201Z,91.70
2018-03-08T03:24:57.727Z,91.80
2018-03-08T03:27:02.014Z,91.30
2018-03-08T03:29:05.572Z,91.30
2018-03-08T03:31:09.075Z,91.90
2018-03-08T03:33:12.645Z,91.30
2018-03-08T03:35:16.247Z,91.90
2018-03-08T03:37:19.797Z,91.60
2018-03-08T03:39:23.294Z,91.80
2018-03-08T03:41:26.891Z,91.80
2018-03-08T03:43:30.402Z,91.90
2018-03-08T03:45:34.714Z,91.80
2018-03-08T03:47:38.364Z,91.70
2018-03-08T03:49:41.864Z,91.80
2018-03-08T03:51:45.418Z,92.50
2018-03-08T03:53:49.697Z,92.40
2018-03-08T03:55:53.244Z,92.40
2018-03-08T03:57:57.556Z,92.00
2018-03-08T04:00:01.159Z,92.00
2018-03-08T04:02:04.765Z,92.00
2018-03-08T04:04:08.298Z,91.70
2018-03-08T04:06:11.870Z,91.30
2018-03-08T04:08:15.466Z,92.10
2018-03-08T04:10:18.976Z,92.10
2018-03-08T04:12:22.493Z,92.00
2018-03-08T04:14:26.042Z,92.60
2018-03-08T04:16:29.571Z,92.10
2018-03-08T04:18:33.123Z,92.80
2018-03-08T04:20:36.710Z,92.60
2018-03-08T04:22:40.234Z,92.90
2018-03-08T04:24:43.779Z,93.20
2018-03-08T04:26:47.384Z,93.00
2018-03-08T04:28:50.908Z,93.20
2018-03-08T04:30:55.218Z,92.70
2018-03-08T04:32:58.787Z,92.70
2018-03-08T04:35:03.100Z,92.30
2018-03-08T04:37:07.399Z,92.20
2018-03-08T04:39:10.965Z,92.20
2018-03-08T04:41:14.505Z,92.20
2018-03-08T04:43:18.109Z,90.80
2018-03-08T04:45:21.712Z,90.90
2018-03-08T04:47:25.990Z,92.20
2018-03-08T04:49:30.303Z,92.00
2018-03-08T04:51:34.647Z,91.80
2018-03-08T04:53:38.914Z,91.60
2018-03-08T04:55:42.497Z,91.60
2018-03-08T04:57:46.036Z,92.10
2018-03-08T04:59:50.367Z,92.70
2018-03-08T05:01:54.706Z,92.70
2018-03-08T05:03:58.252Z,92.70
2018-03-08T05:06:01.816Z,91.20
2018-03-08T05:08:05.324Z,91.30
2018-03-08T05:10:08.940Z,90.10
2018-03-08T05:12:13.293Z,90.90
2018-03-08T05:14:16.875Z,90.90
2018-03-08T05:16:20.436Z,91.00
2018-03-08T05:18:24.049Z,89.90
2018-03-08T05:20:27.542Z,88.20
2018-03-08T05:22:31.869Z,90.90
2018-03-08T05:24:35.462Z,90.90
2018-03-08T05:26:38.987Z,90.70
2018-03-08T05:28:42.535Z,87.30
2018-03-08T05:30:46.127Z,87.10
2018-03-08T05:32:49.621Z,90.60
2018-03-08T05:34:53.221Z,90.90
2018-03-08T05:36:56.825Z,90.00
2018-03-08T05:39:00.353Z,90.40
2018-03-08T05:41:03.884Z,91.70
2018-03-08T05:43:07.691Z,91.90
2018-03-08T05:45:11.214Z,91.60
2018-03-08T05:47:15.533Z,89.50
2018-03-08T05:49:19.857Z,91.20
2018-03-08T05:51:23.682Z,91.20
2018-03-08T05:53:27.510Z,91.90
2018-03-08T05:55:31.097Z,90.90
2018-03-08T05:57:34.649Z,91.50
2018-03-08T05:59:39.352Z,91.50
2018-03-08T06:01:42.853Z,91.50
2018-03-08T06:03:46.389Z,92.00
2018-03-08T06:05:49.970Z,91.90
2018-03-08T06:07:54.239Z,91.90
2018-03-08T06:09:57.784Z,91.90
2018-03-08T06:12:01.286Z,92.00
2018-03-08T06:14:04.837Z,92.10
2018-03-08T06:16:08.384Z,91.90
2018-03-08T06:18:11.916Z,92.00
2018-03-08T06:20:15.440Z,92.10
2018-03-08T06:22:19.717Z,91.80
2018-03-08T06:24:23.310Z,91.80
2018-03-08T06:26:26.862Z,92.00
2018-03-08T06:28:30.392Z,91.80
2018-03-08T06:30:34.023Z,92.20
2018-03-08T06:32:37.638Z,92.10
2018-03-08T06:34:41.957Z,91.70
2018-03-08T06:36:45.555Z,91.60
2018-03-08T06:38:49.165Z,91.50
2018-03-08T06:40:52.706Z,91.50
2018-03-08T06:42:56.334Z,91.60
2018-03-08T06:45:00.624Z,92.10
2018-03-08T06:47:04.251Z,92.00
2018-03-08T06:49:07.817Z,91.90
2018-03-08T06:51:12.906Z,91.60
2018-03-08T06:53:16.410Z,91.60
2018-03-08T06:55:20.042Z,91.20
2018-03-08T06:57:23.567Z,91.10
2018-03-08T06:59:27.902Z,91.10
2018-03-08T07:01:31.532Z,91.00
2018-03-08T07:03:35.073Z,91.10
2018-03-08T07:05:39.388Z,90.50
2018-03-08T07:07:42.938Z,90.50
2018-03-08T07:09:46.471Z,90.80
2018-03-08T07:11:50.894Z,91.60
2018-03-08T07:13:55.188Z,91.70
2018-03-08T07:15:58.702Z,91.60
2018-03-08T07:18:03.037Z,90.40
2018-03-08T07:20:07.497Z,90.40
2018-03-08T07:22:11.035Z,89.30
2018-03-08T07:24:15.255Z,88.70
2018-03-08T07:26:19.130Z,89.60
2018-03-08T07:28:23.453Z,89.70
2018-03-08T07:30:27.037Z,89.60
2018-03-08T07:32:30.570Z,88.30
2018-03-08T07:34:34.101Z,88.30
2018-03-08T07:36:37.746Z,88.60
2018-03-08T07:38:42.128Z,87.20
2018-03-08T07:40:45.638Z,87.20
2018-03-08T07:42:50.107Z,87.20
2018-03-08T07:44:53.814Z,87.20
2018-03-08T07:46:58.353Z,86.00
2018-03-08T07:49:01.951Z,86.00
2018-03-08T07:51:05.528Z,86.80
2018-03-08T07:53:09.082Z,86.70
2018-03-08T07:55:12.676Z,83.30
2018-03-08T07:57:16.973Z,86.70
2018-03-08T07:59:21.268Z,84.30
2018-03-08T08:01:24.814Z,84.30
2018-03-08T08:03:28.390Z,86.70
2018-03-08T08:05:43.609Z,87.70
2018-03-08T08:07:59.898Z,85.40
2018-03-08T08:10:03.474Z,85.30
2018-03-08T08:12:07.059Z,85.40
2018-03-08T08:14:10.623Z,88.30
2018-03-08T08:16:14.221Z,87.30
2018-03-08T08:18:17.722Z,85.70
2018-03-08T08:20:22.015Z,86.30
2018-03-08T08:22:25.574Z,86.20
2018-03-08T08:24:29.102Z,87.70
2018-03-08T08:26:32.709Z,86.30
2018-03-08T08:28:36.246Z,87.20
2018-03-08T08:30:39.761Z,84.60
2018-03-08T08:32:43.398Z,82.60
2018-03-08T08:34:46.901Z,82.60
2018-03-08T08:36:51.231Z,81.80
2018-03-08T08:38:54.777Z,81.80
2018-03-08T08:40:59.147Z,81.30
2018-03-08T08:43:02.689Z,81.20
2018-03-08T08:45:06.221Z,80.90
2018-03-08T08:47:10.557Z,80.80
2018-03-08T08:49:14.073Z,80.60
2018-03-08T08:51:17.617Z,80.50
2018-03-08T08:53:21.885Z,80.10
2018-03-08T08:55:25.657Z,80.10
2018-03-08T08:57:29.211Z,78.70
2018-03-08T08:59:32.706Z,77.90
2018-03-08T09:01:36.282Z,78.20
2018-03-08T09:03:39.835Z,77.90
2018-03-08T09:05:44.114Z,78.50
2018-03-08T09:07:47.665Z,78.30
2018-03-08T09:09:51.257Z,81.10
2018-03-08T09:11:54.838Z,82.10
2018-03-08T09:13:58.438Z,82.20
2018-03-08T09:16:01.979Z,81.50
2018-03-08T09:18:05.500Z,80.10
2018-03-08T09:20:09.072Z,81.70
2018-03-08T09:22:12.680Z,81.80
2018-03-08T09:24:16.170Z,79.00
2018-03-08T09:26:19.678Z,79.20
2018-03-08T09:28:23.293Z,79.10
2018-03-08T09:30:27.555Z,81.30
2018-03-08T09:32:31.131Z,81.30
2018-03-08T09:34:34.702Z,80.70
2018-03-08T09:36:38.314Z,79.70
2018-03-08T09:38:41.912Z,78.80
2018-03-08T09:40:45.476Z,77.30
2018-03-08T09:42:49.844Z,79.80
2018-03-08T09:44:53.435Z,79.80
2018-03-08T09:46:56.956Z,80.70
2018-03-08T09:49:00.540Z,77.80
2018-03-08T09:51:04.058Z,76.20
2018-03-08T09:53:07.549Z,76.10
2018-03-08T09:55:11.161Z,77.30
2018-03-08T09:57:14.691Z,76.60
2018-03-08T09:59:18.294Z,76.20
2018-03-08T10:01:21.959Z,75.90
2018-03-08T10:03:26.279Z,77.70
2018-03-08T10:05:30.594Z,78.40
2018-03-08T10:07:34.970Z,77.70
2018-03-08T10:09:38.553Z,77.60
2018-03-08T10:11:42.144Z,76.80
2018-03-08T10:13:45.683Z,76.80
2018-03-08T10:15:49.974Z,77.10
2018-03-08T10:17:53.533Z,77.10
2018-03-08T10:19:57.012Z,76.60
2018-03-08T10:22:00.579Z,77.20
2018-03-08T10:24:04.111Z,76.80
2018-03-08T10:26:07.713Z,76.70
2018-03-08T10:28:11.246Z,77.30
2018-03-08T10:30:14.824Z,75.80
2018-03-08T10:32:18.399Z,75.80
2018-03-08T10:34:21.973Z,76.10
2018-03-08T10:36:26.284Z,77.20
2018-03-08T10:38:29.906Z,77.00
2018-03-08T10:44:41.444Z,75.10
2018-03-08T10:46:44.998Z,75.10
2018-03-08T10:50:52.154Z,75.40
2018-03-08T10:52:55.898Z,75.30
2018-03-08T10:54:59.431Z,76.30
2018-03-08T10:57:02.955Z,75.50
2018-03-08T10:59:06.497Z,75.70
2018-03-08T11:01:10.045Z,74.00
2018-03-08T11:03:14.397Z,74.10
2018-03-08T11:05:25.205Z,74.10
2018-03-08T11:07:28.711Z,73.80
2018-03-08T11:09:32.271Z,73.80
2018-03-08T11:11:35.828Z,73.80
2018-03-08T11:13:40.151Z,74.80
2018-03-08T11:15:43.748Z,74.00
2018-03-08T11:17:47.330Z,72.10
2018-03-08T11:19:50.862Z,71.80
2018-03-08T11:21:54.482Z,70.60
2018-03-08T11:23:57.978Z,71.70
2018-03-08T11:26:01.499Z,70.90
2018-03-08T11:28:06.440Z,71.20
2018-03-08T11:30:10.698Z,71.10
2018-03-08T11:32:14.247Z,71.10
2018-03-08T11:34:18.548Z,70.60
2018-03-08T11:36:22.046Z,70.50
2018-03-08T11:38:25.559Z,70.30
2018-03-08T11:40:30.117Z,69.20
2018-03-08T11:42:33.841Z,69.10
2018-03-08T11:44:37.613Z,70.80
2018-03-08T11:46:42.144Z,70.40
2018-03-08T11:48:45.741Z,70.40
2018-03-08T11:50:49.279Z,70.50
2018-03-08T11:52:53.532Z,69.80
2018-03-08T11:54:57.084Z,69.80
2018-03-08T11:57:00.587Z,69.40
2018-03-08T11:59:04.076Z,70.70
2018-03-08T12:01:08.400Z,69.80
2018-03-08T12:03:12.706Z,70.10
2018-03-08T12:05:16.259Z,70.10
2018-03-08T12:07:19.774Z,69.20
2018-03-08T12:09:23.346Z,69.70
2018-03-08T12:11:26.949Z,69.10
2018-03-08T12:13:30.485Z,69.60
2018-03-08T12:15:34.089Z,69.50
2018-03-08T12:17:37.639Z,70.70
2018-03-08T12:19:41.152Z,69.40
2018-03-08T12:21:44.707Z,71.10
2018-03-08T12:23:48.210Z,69.40
2018-03-08T12:25:51.712Z,70.00
2018-03-08T12:27:55.261Z,69.20
2018-03-08T12:29:58.757Z,69.20
2018-03-08T12:32:02.272Z,69.10
2018-03-08T12:34:05.843Z,69.30
2018-03-08T12:36:09.439Z,69.40
2018-03-08T12:38:13.735Z,69.30
2018-03-08T12:40:18.093Z,69.20
2018-03-08T12:42:21.649Z,69.20
2018-03-08T12:44:25.984Z,71.20
2018-03-08T12:46:29.496Z,70.90
2018-03-08T12:48:33.066Z,71.00
2018-03-08T12:50:37.386Z,71.60
2018-03-08T12:52:40.920Z,71.60
2018-03-08T12:54:44.538Z,71.50
2018-03-08T12:56:48.078Z,69.90
2018-03-08T12:58:51.573Z,71.50
2018-03-08T13:00:55.887Z,72.70
2018-03-08T13:02:59.379Z,72.60
2018-03-08T13:05:02.886Z,72.00
2018-03-08T13:07:06.454Z,73.00
2018-03-08T13:09:09.971Z,75.20
2018-03-08T13:11:13.506Z,75.60
2018-03-08T13:13:17.029Z,74.20
2018-03-08T13:15:21.325Z,76.60
2018-03-08T13:17:24.854Z,76.50
2018-03-08T13:19:28.456Z,79.40
2018-03-08T13:21:32.763Z,77.50
2018-03-08T13:23:37.083Z,76.00
2018-03-08T13:25:40.626Z,76.00
2018-03-08T13:27:44.221Z,77.80
2018-03-08T13:29:47.794Z,77.00
2018-03-08T13:31:51.327Z,76.70
2018-03-08T13:33:54.854Z,76.60
2018-03-08T13:35:59.215Z,76.80
2018-03-08T13:38:02.797Z,76.80
2018-03-08T13:40:06.622Z,75.90
2018-03-08T13:42:10.147Z,76.90
2018-03-08T13:44:14.470Z,76.50
2018-03-08T13:46:18.752Z,75.90
2018-03-08T13:48:22.408Z,75.90
2018-03-08T13:50:25.943Z,76.30
2018-03-08T13:52:29.451Z,75.40
2018-03-08T13:54:33.790Z,79.30
2018-03-08T13:56:38.055Z,77.20
2018-03-08T13:58:45.300Z,77.10
2018-03-08T14:00:48.883Z,77.60
2018-03-08T14:02:53.185Z,74.40
2018-03-08T14:04:58.196Z,79.10
2018-03-08T14:07:02.542Z,77.90
2018-03-08T14:09:06.841Z,76.60
2018-03-08T14:11:11.201Z,77.90
2018-03-08T14:13:14.710Z,77.90
2018-03-08T14:15:19.012Z,77.90
2018-03-08T14:17:22.609Z,77.80
2018-03-08T14:19:26.122Z,77.60
2018-03-08T14:21:29.662Z,78.60
2018-03-08T14:23:33.242Z,78.40
2018-03-08T14:25:36.777Z,79.60
2018-03-08T14:27:40.296Z,76.10
2018-03-08T14:29:43.869Z,76.70
2018-03-08T14:31:47.418Z,76.00
2018-03-08T14:33:50.909Z,76.90
2018-03-08T14:35:55.198Z,77.30
2018-03-08T14:37:58.698Z,77.20
2018-03-08T14:40:02.286Z,76.90
2018-03-08T14:42:05.910Z,75.80
2018-03-08T14:44:09.418Z,75.90
2018-03-08T14:46:12.971Z,75.70
2018-03-08T14:48:16.499Z,75.50
2018-03-08T14:50:20.071Z,75.70
2018-03-08T14:52:23.583Z,78.10
2018-03-08T14:54:27.095Z,77.20
2018-03-08T14:56:30.647Z,76.70
2018-03-08T14:58:34.182Z,79.10
2018-03-08T15:00:38.500Z,76.70
2018-03-08T15:02:42.841Z,79.20
2018-03-08T15:04:46.420Z,79.20
2018-03-08T15:06:50.754Z,78.40
2018-03-08T15:08:54.347Z,78.30
2018-03-08T15:10:57.851Z,77.80
2018-03-08T15:13:01.439Z,79.80
2018-03-08T15:15:05.191Z,78.00
2018-03-08T15:17:08.696Z,76.20
2018-03-08T15:19:12.262Z,75.30
2018-03-08T15:21:15.788Z,76.80
2018-03-08T15:23:19.296Z,76.90
2018-03-08T15:25:22.846Z,76.40
2018-03-08T15:27:26.383Z,75.70
2018-03-08T15:29:29.861Z,75.70
2018-03-08T15:31:33.418Z,74.00
2018-03-08T15:33:36.935Z,76.70
2018-03-08T15:35:41.233Z,77.30
2018-03-08T15:37:44.801Z,77.30
2018-03-08T15:39:48.333Z,76.00
2018-03-08T15:41:52.695Z,74.80
2018-03-08T15:43:57.041Z,77.50
2018-03-08T15:46:00.637Z,77.50
2018-03-08T15:48:04.176Z,76.80
2018-03-08T15:50:07.815Z,76.70
2018-03-08T15:52:11.356Z,78.20
2018-03-08T15:54:14.901Z,85.30
2018-03-08T15:56:18.588Z,83.40
2018-03-08T15:58:22.084Z,86.30
2018-03-08T16:00:25.696Z,88.40
2018-03-08T16:02:29.230Z,88.00
2018-03-08T16:04:32.823Z,88.60
2018-03-08T16:06:48.433Z,88.30
2018-03-08T16:09:10.443Z,90.40
2018-03-08T16:11:14.048Z,90.90
2018-03-08T16:13:17.534Z,90.50
2018-03-08T16:15:21.942Z,89.30
2018-03-08T16:17:25.479Z,83.80
2018-03-08T16:19:29.822Z,83.30
2018-03-08T16:21:39.445Z,83.00
2018-03-08T16:23:43.009Z,81.20
2018-03-08T16:25:46.590Z,80.80
2018-03-08T16:27:50.084Z,77.90
2018-03-08T16:29:54.404Z,76.10
2018-03-08T16:31:57.999Z,76.20
2018-03-08T16:34:01.501Z,77.20
2018-03-08T16:36:05.062Z,79.50
2018-03-08T16:38:08.630Z,80.30
2018-03-08T16:40:12.130Z,82.30
2018-03-08T16:42:15.623Z,84.20
2018-03-08T16:44:19.349Z,85.40
2018-03-08T16:46:23.072Z,88.00
2018-03-08T16:48:26.598Z,89.80
2018-03-08T16:50:30.893Z,89.20
2018-03-08T16:52:34.437Z,89.10
2018-03-08T16:54:37.955Z,87.40
2018-03-08T16:56:41.480Z,87.50
2018-03-08T16:58:45.046Z,87.90
2018-03-08T17:00:48.662Z,87.10
2018-03-08T17:02:52.172Z,88.50
2018-03-08T17:04:56.490Z,90.40
2018-03-08T17:07:00.061Z,90.40
2018-03-08T17:09:03.673Z,90.90
2018-03-08T17:11:07.243Z,87.90
2018-03-08T17:13:10.784Z,88.50
2018-03-08T17:15:15.093Z,84.80
2018-03-08T17:17:19.401Z,83.80
2018-03-08T17:19:22.965Z,83.80
2018-03-08T17:21:27.213Z,81.50
2018-03-08T17:23:31.525Z,81.30
2018-03-08T17:25:35.846Z,82.00
2018-03-08T17:27:40.138Z,80.70
2018-03-08T17:29:44.453Z,79.90
2018-03-08T17:31:48.023Z,79.60
2018-03-08T17:33:51.576Z,79.10
2018-03-08T17:35:55.915Z,80.50
2018-03-08T17:37:59.541Z,80.50
2018-03-08T17:40:03.104Z,81.10
2018-03-08T17:42:06.725Z,80.60
2018-03-08T17:44:10.274Z,80.30
2018-03-08T17:46:13.874Z,79.40
2018-03-08T17:48:17.436Z,78.20
2018-03-08T17:50:20.925Z,78.30
2018-03-08T17:52:25.281Z,78.20
2018-03-08T17:54:28.809Z,78.20
2018-03-08T17:56:32.392Z,77.90
2018-03-08T17:58:35.915Z,77.50
2018-03-08T18:00:39.489Z,78.50
2018-03-08T18:02:43.019Z,78.40
2018-03-08T18:04:46.540Z,78.30
2018-03-08T18:06:50.870Z,77.60
2018-03-08T18:08:54.644Z,77.50
2018-03-08T18:10:58.160Z,76.70
2018-03-08T18:13:02.567Z,77.40
2018-03-08T18:15:06.820Z,77.40
2018-03-08T18:17:10.339Z,77.20
2018-03-08T18:19:13.883Z,76.20
2018-03-08T18:21:17.466Z,78.90
2018-03-08T18:23:21.012Z,80.40
2018-03-08T18:25:24.499Z,82.90
2018-03-08T18:27:28.042Z,80.40
2018-03-08T18:29:32.387Z,84.20
2018-03-08T18:31:35.901Z,83.50
2018-03-08T18:33:39.435Z,84.70
2018-03-08T18:35:43.002Z,85.60
2018-03-08T18:37:46.516Z,87.30
2018-03-08T18:39:50.064Z,88.00
2018-03-08T18:41:53.553Z,86.90
2018-03-08T18:43:57.107Z,86.90
2018-03-08T18:46:00.680Z,87.10
2018-03-08T18:48:04.273Z,88.70
2018-03-08T18:50:07.799Z,90.10
2018-03-08T18:52:11.365Z,87.50
2018-03-08T18:54:14.931Z,89.00
2018-03-08T18:56:18.479Z,88.90
2018-03-08T18:58:27.073Z,89.70
2018-03-08T19:00:30.611Z,90.20
2018-03-08T19:02:34.170Z,90.70
2018-03-08T19:04:37.683Z,90.80
2018-03-08T19:06:42.033Z,89.60
2018-03-08T19:08:45.583Z,89.60
2018-03-08T19:10:49.121Z,89.20
2018-03-08T19:12:53.472Z,90.40
2018-03-08T19:14:57.019Z,90.30
2018-03-08T19:17:01.341Z,90.10
2018-03-08T19:19:04.861Z,90.10
2018-03-08T19:21:08.358Z,89.50
2018-03-08T19:23:11.869Z,89.50
2018-03-08T19:25:15.393Z,88.50
2018-03-08T19:27:19.721Z,88.20
2018-03-08T19:29:24.014Z,89.20
2018-03-08T19:31:27.556Z,89.20
2018-03-08T19:33:31.145Z,88.20
2018-03-08T19:35:34.621Z,87.20
2018-03-08T19:37:38.958Z,87.70
2018-03-08T19:39:42.530Z,87.60
2018-03-08T19:41:46.036Z,88.20
2018-03-08T19:43:50.312Z,87.30
2018-03-08T19:45:54.669Z,87.00
2018-03-08T19:47:58.171Z,87.00
2018-03-08T19:50:01.720Z,86.30
2018-03-08T19:52:05.301Z,86.40
2018-03-08T19:54:09.649Z,86.40
2018-03-08T19:56:13.316Z,86.50
2018-03-08T19:58:16.864Z,87.70
2018-03-08T20:00:20.398Z,86.60
2018-03-08T20:02:23.962Z,87.30
2018-03-08T20:04:27.450Z,87.60
2018-03-08T20:06:31.000Z,88.20
2018-03-08T20:08:35.357Z,86.50
2018-03-08T20:10:39.670Z,86.60
2018-03-08T20:12:43.184Z,86.40
2018-03-08T20:14:46.717Z,86.70
2018-03-08T20:16:50.423Z,86.80
2018-03-08T20:18:55.295Z,86.30
2018-03-08T20:20:58.863Z,86.30
2018-03-08T20:23:03.164Z,87.90
2018-03-08T20:25:07.552Z,87.00
2018-03-08T20:27:11.103Z,86.90
2018-03-08T20:29:14.682Z,88.30
2018-03-08T20:31:18.281Z,87.70
2018-03-08T20:33:22.601Z,87.60
2018-03-08T20:35:26.917Z,88.60
2018-03-08T20:37:30.478Z,88.40
2018-03-08T20:39:34.024Z,88.30
2018-03-08T20:41:37.582Z,88.10
2018-03-08T20:43:41.079Z,89.20
2018-03-08T20:45:44.589Z,88.70
2018-03-08T20:47:48.154Z,89.00
2018-03-08T20:49:52.536Z,90.10
2018-03-08T20:51:56.017Z,90.10
2018-03-08T20:53:59.608Z,90.20
2018-03-08T20:56:03.217Z,90.10
2018-03-08T20:58:06.894Z,91.00
2018-03-08T21:00:11.250Z,91.40
2018-03-08T21:02:14.868Z,91.40
2018-03-08T21:04:18.386Z,91.20
2018-03-08T21:06:21.967Z,90.90
2018-03-08T21:08:25.674Z,91.50
2018-03-08T21:10:29.228Z,91.70
2018-03-08T21:12:32.847Z,91.50
2018-03-08T21:14:36.399Z,92.10
2018-03-08T21:16:39.902Z,91.70
2018-03-08T21:18:43.398Z,92.00
2018-03-08T21:20:46.989Z,91.80
2018-03-08T21:22:50.519Z,91.80
2018-03-08T21:24:54.065Z,91.60
2018-03-08T21:26:57.725Z,92.30
2018-03-08T21:29:01.220Z,91.90
2018-03-08T21:31:04.785Z,91.80
2018-03-08T21:33:08.748Z,91.50
2018-03-08T21:35:13.605Z,91.60
2018-03-08T21:37:17.174Z,91.60
2018-03-08T21:39:20.717Z,91.50
2018-03-08T21:41:24.292Z,92.00
2018-03-08T21:43:27.788Z,91.90
2018-03-08T21:45:31.296Z,91.60
2018-03-08T21:47:34.998Z,91.90
2018-03-08T21:49:38.606Z,91.90
2018-03-08T21:51:42.139Z,91.60
2018-03-08T21:53:46.422Z,91.70
2018-03-08T21:55:49.999Z,91.80
2018-03-08T21:57:53.536Z,91.70
2018-03-08T21:59:57.876Z,91.10
2018-03-08T22:02:01.423Z,91.10
2018-03-08T22:04:05.008Z,90.80
2018-03-08T22:06:08.514Z,90.80
2018-03-08T22:08:12.079Z,91.30
2018-03-08T22:10:15.600Z,90.90
2018-03-08T22:12:19.296Z,90.80
2018-03-08T22:14:23.120Z,91.10
2018-03-08T22:16:26.744Z,91.30
2018-03-08T22:18:30.333Z,91.00
2018-03-08T22:20:34.196Z,91.60
2018-03-08T22:22:37.709Z,91.10
2018-03-08T22:24:46.154Z,91.10
2018-03-08T22:26:52.407Z,91.30
2018-03-08T22:28:55.977Z,91.30
2018-03-08T22:30:59.809Z,90.90
2018-03-08T22:33:03.311Z,91.20
2018-03-08T22:35:07.416Z,91.30
2018-03-08T22:37:11.606Z,91.80
2018-03-08T22:39:16.203Z,91.10
2018-03-08T22:41:19.933Z,91.10
2018-03-08T22:43:26.041Z,91.60
2018-03-08T22:45:30.537Z,91.60
2018-03-08T22:47:34.574Z,91.20
2018-03-08T22:49:38.501Z,91.40
2018-03-08T22:51:42.446Z,90.90
2018-03-08T22:53:46.152Z,91.30
2018-03-08T22:55:49.726Z,90.90
2018-03-08T22:57:53.438Z,91.60
2018-03-08T22:59:56.946Z,91.50
2018-03-08T23:02:08.692Z,91.00
2018-03-08T23:04:12.274Z,91.00
2018-03-08T23:06:16.118Z,90.90
2018-03-08T23:08:19.646Z,90.90
2018-03-08T23:10:23.975Z,91.00
2018-03-08T23:12:27.642Z,91.00
2018-03-08T23:14:31.191Z,90.90
2018-03-08T23:16:35.491Z,90.90
2018-03-08T23:18:43.621Z,90.90
2018-03-08T23:20:49.259Z,90.70
2018-03-08T23:22:57.559Z,91.20
2018-03-08T23:25:01.865Z,91.20
2018-03-08T23:27:09.704Z,91.00
2018-03-08T23:29:15.865Z,91.20
2018-03-08T23:31:19.605Z,91.30
2018-03-08T23:33:23.160Z,91.10
2018-03-08T23:35:27.259Z,90.80
2018-03-08T23:37:33.306Z,91.30
2018-03-08T23:39:38.483Z,91.30
2018-03-08T23:41:42.103Z,91.20
2018-03-08T23:43:45.640Z,90.70
2018-03-08T23:45:49.177Z,91.20
2018-03-08T23:47:52.666Z,91.80
2018-03-08T23:49:56.272Z,91.20
2018-03-08T23:52:00.577Z,91.50
2018-03-08T23:54:04.098Z,91.50
2018-03-08T23:56:07.656Z,91.40
2018-03-08T23:58:11.211Z,91.60
